MQC94J FQMA-FALE
Flight info
| Callsign | MQC94J |
|---|---|
| Flight time | 0h 53m |
| Altitude | 32000 |
| Route | TONKA1C TONKA UT949 IXESU UT915 GERAX UQ63 APMAT APMAT1A |
| Aircraft | B738/M-SDE2E3FGHIRWXY/LB1 |
Departure
| Time | 2026-04-25 07:57 |
|---|---|
| Airport | Maputo Airport (FQMA) |
Arrival
| Time | 2026-04-25 08:51 |
|---|---|
| Airport | King Shaka International Airport (FALE) |
| Time | Latitude | Longitude | Altitude | Speed | Heading |
|---|---|---|---|---|---|
| 2026-04-25 07:37 | -25.92287 | 32.57574 | 133 ft | 0 kts | 176° |
| 2026-04-25 07:47 | -25.92271 | 32.57573 | 133 ft | 4 kts | 176° |
| 2026-04-25 07:48 | -25.92244 | 32.57571 | 133 ft | 4 kts | 176° |
| 2026-04-25 07:48 | -25.92224 | 32.57571 | 133 ft | 4 kts | 187° |
| 2026-04-25 07:48 | -25.92199 | 32.57578 | 133 ft | 4 kts | 205° |
| 2026-04-25 07:48 | -25.92184 | 32.57586 | 133 ft | 1 kts | 205° |
| 2026-04-25 07:49 | -25.92182 | 32.57587 | 133 ft | 0 kts | 205° |
| 2026-04-25 07:50 | -25.92186 | 32.57581 | 133 ft | 4 kts | 236° |
| 2026-04-25 07:50 | -25.92168 | 32.57559 | 133 ft | 5 kts | 355° |
| 2026-04-25 07:50 | -25.92116 | 32.57558 | 133 ft | 10 kts | 359° |
| 2026-04-25 07:51 | -25.92034 | 32.57539 | 132 ft | 12 kts | 344° |
| 2026-04-25 07:51 | -25.91951 | 32.57536 | 133 ft | 12 kts | 20° |
| 2026-04-25 07:51 | -25.91875 | 32.57574 | 134 ft | 12 kts | 29° |
| 2026-04-25 07:51 | -25.91804 | 32.57618 | 134 ft | 12 kts | 30° |
| 2026-04-25 07:52 | -25.91742 | 32.57657 | 135 ft | 11 kts | 29° |
| 2026-04-25 07:52 | -25.91674 | 32.57698 | 135 ft | 11 kts | 28° |
| 2026-04-25 07:52 | -25.91609 | 32.57739 | 136 ft | 11 kts | 31° |
| 2026-04-25 07:52 | -25.91542 | 32.57781 | 137 ft | 12 kts | 29° |
| 2026-04-25 07:53 | -25.91465 | 32.57827 | 138 ft | 12 kts | 27° |
| 2026-04-25 07:53 | -25.91381 | 32.57872 | 139 ft | 14 kts | 25° |
| 2026-04-25 07:53 | -25.91300 | 32.57925 | 140 ft | 13 kts | 38° |
| 2026-04-25 07:53 | -25.91226 | 32.57985 | 140 ft | 13 kts | 32° |
| 2026-04-25 07:54 | -25.91146 | 32.58036 | 141 ft | 13 kts | 28° |
| 2026-04-25 07:54 | -25.91067 | 32.58082 | 142 ft | 13 kts | 27° |
| 2026-04-25 07:54 | -25.90982 | 32.58132 | 142 ft | 15 kts | 28° |
| 2026-04-25 07:54 | -25.90891 | 32.58188 | 143 ft | 15 kts | 29° |
| 2026-04-25 07:55 | -25.90800 | 32.58243 | 144 ft | 15 kts | 29° |
| 2026-04-25 07:55 | -25.90714 | 32.58297 | 145 ft | 14 kts | 29° |
| 2026-04-25 07:55 | -25.90630 | 32.58348 | 146 ft | 14 kts | 29° |
| 2026-04-25 07:55 | -25.90546 | 32.58401 | 147 ft | 13 kts | 29° |
| 2026-04-25 07:56 | -25.90464 | 32.58449 | 148 ft | 15 kts | 22° |
| 2026-04-25 07:56 | -25.90380 | 32.58394 | 148 ft | 16 kts | 300° |
| 2026-04-25 07:56 | -25.90384 | 32.58285 | 147 ft | 16 kts | 212° |
| 2026-04-25 07:56 | -25.90533 | 32.58196 | 144 ft | 51 kts | 208° |
| 2026-04-25 07:57 | -25.91064 | 32.57875 | 141 ft | 120 kts | 209° |
| 2026-04-25 07:57 | -25.91967 | 32.57326 | 224 ft | 167 kts | 208° |
| 2026-04-25 07:57 | -25.93075 | 32.56673 | 671 ft | 191 kts | 209° |
| 2026-04-25 07:57 | -25.94294 | 32.55953 | 1334 ft | 205 kts | 213° |
| 2026-04-25 07:58 | -25.95138 | 32.54725 | 2065 ft | 198 kts | 250° |
| 2026-04-25 07:58 | -25.95651 | 32.53201 | 2419 ft | 224 kts | 249° |
| 2026-04-25 07:58 | -25.96248 | 32.51532 | 2873 ft | 238 kts | 247° |
| 2026-04-25 07:58 | -25.96904 | 32.49813 | 3488 ft | 248 kts | 247° |
| 2026-04-25 07:59 | -25.97610 | 32.47989 | 4077 ft | 263 kts | 246° |
| 2026-04-25 07:59 | -25.98346 | 32.46104 | 4898 ft | 267 kts | 246° |
| 2026-04-25 07:59 | -25.99089 | 32.44206 | 5803 ft | 269 kts | 247° |
| 2026-04-25 07:59 | -25.99840 | 32.42294 | 6650 ft | 272 kts | 247° |
| 2026-04-25 08:00 | -26.00602 | 32.40353 | 7453 ft | 276 kts | 248° |
| 2026-04-25 08:00 | -26.01372 | 32.38400 | 8351 ft | 276 kts | 248° |
| 2026-04-25 08:00 | -26.02142 | 32.36438 | 9177 ft | 278 kts | 248° |
| 2026-04-25 08:00 | -26.02919 | 32.34457 | 9949 ft | 282 kts | 248° |
| 2026-04-25 08:01 | -26.03710 | 32.32440 | 10614 ft | 290 kts | 248° |
| 2026-04-25 08:01 | -26.04550 | 32.30294 | 10801 ft | 315 kts | 248° |
| 2026-04-25 08:01 | -26.05452 | 32.27985 | 10978 ft | 337 kts | 248° |
| 2026-04-25 08:01 | -26.06410 | 32.25537 | 11346 ft | 351 kts | 248° |
| 2026-04-25 08:02 | -26.07395 | 32.23027 | 11938 ft | 356 kts | 248° |
| 2026-04-25 08:02 | -26.08389 | 32.20495 | 12657 ft | 358 kts | 248° |
| 2026-04-25 08:02 | -26.09384 | 32.17956 | 13353 ft | 360 kts | 248° |
| 2026-04-25 08:02 | -26.10390 | 32.15390 | 13968 ft | 364 kts | 249° |
| 2026-04-25 08:03 | -26.11403 | 32.12798 | 14577 ft | 367 kts | 249° |
| 2026-04-25 08:03 | -26.12462 | 32.10200 | 15193 ft | 371 kts | 243° |
| 2026-04-25 08:03 | -26.13972 | 32.07840 | 15774 ft | 378 kts | 233° |
| 2026-04-25 08:03 | -26.15700 | 32.05607 | 16343 ft | 382 kts | 232° |
| 2026-04-25 08:04 | -26.17409 | 32.03324 | 16901 ft | 385 kts | 235° |
| 2026-04-25 08:04 | -26.18995 | 32.00918 | 17433 ft | 387 kts | 238° |
| 2026-04-25 08:04 | -26.20519 | 31.98438 | 17961 ft | 390 kts | 239° |
| 2026-04-25 08:04 | -26.22058 | 31.95935 | 18485 ft | 393 kts | 239° |
| 2026-04-25 08:05 | -26.23634 | 31.93432 | 18997 ft | 396 kts | 238° |
| 2026-04-25 08:05 | -26.25248 | 31.90927 | 19483 ft | 399 kts | 238° |
| 2026-04-25 08:05 | -26.26889 | 31.88419 | 19982 ft | 402 kts | 237° |
| 2026-04-25 08:05 | -26.28526 | 31.85934 | 20457 ft | 404 kts | 237° |
| 2026-04-25 08:06 | -26.30199 | 31.83401 | 20906 ft | 407 kts | 237° |
| 2026-04-25 08:06 | -26.31882 | 31.80850 | 21357 ft | 410 kts | 237° |
| 2026-04-25 08:06 | -26.33573 | 31.78284 | 21787 ft | 412 kts | 238° |
| 2026-04-25 08:06 | -26.35277 | 31.75695 | 22196 ft | 415 kts | 238° |
| 2026-04-25 08:07 | -26.37002 | 31.73054 | 22603 ft | 417 kts | 239° |
| 2026-04-25 08:07 | -26.38480 | 31.70331 | 22972 ft | 415 kts | 249° |
| 2026-04-25 08:07 | -26.39499 | 31.67288 | 23376 ft | 413 kts | 256° |
| 2026-04-25 08:07 | -26.40318 | 31.64250 | 23747 ft | 415 kts | 256° |
| 2026-04-25 08:08 | -26.41223 | 31.61172 | 24083 ft | 419 kts | 253° |
| 2026-04-25 08:08 | -26.42314 | 31.58148 | 24451 ft | 422 kts | 250° |
| 2026-04-25 08:08 | -26.43476 | 31.55134 | 24854 ft | 423 kts | 250° |
| 2026-04-25 08:08 | -26.44614 | 31.52110 | 25230 ft | 423 kts | 251° |
| 2026-04-25 08:09 | -26.45708 | 31.49057 | 25592 ft | 424 kts | 252° |
| 2026-04-25 08:09 | -26.46771 | 31.45981 | 25923 ft | 426 kts | 253° |
| 2026-04-25 08:09 | -26.47823 | 31.42895 | 26277 ft | 426 kts | 253° |
| 2026-04-25 08:09 | -26.48960 | 31.39825 | 26575 ft | 432 kts | 245° |
| 2026-04-25 08:10 | -26.50837 | 31.37160 | 26864 ft | 446 kts | 227° |
| 2026-04-25 08:10 | -26.53407 | 31.35161 | 27169 ft | 458 kts | 212° |
| 2026-04-25 08:10 | -26.56429 | 31.33920 | 27431 ft | 470 kts | 197° |
| 2026-04-25 08:10 | -26.59732 | 31.33645 | 27676 ft | 483 kts | 182° |
| 2026-04-25 08:11 | -26.63103 | 31.33910 | 27908 ft | 488 kts | 179° |
| 2026-04-25 08:11 | -26.66486 | 31.34310 | 28137 ft | 490 kts | 178° |
| 2026-04-25 08:11 | -26.69886 | 31.34707 | 28371 ft | 491 kts | 179° |
| 2026-04-25 08:11 | -26.73297 | 31.34978 | 28622 ft | 491 kts | 181° |
| 2026-04-25 08:12 | -26.76710 | 31.35150 | 28914 ft | 491 kts | 183° |
| 2026-04-25 08:12 | -26.80119 | 31.35299 | 29259 ft | 490 kts | 182° |
| 2026-04-25 08:12 | -26.83519 | 31.35461 | 29646 ft | 488 kts | 182° |
| 2026-04-25 08:12 | -26.86913 | 31.35649 | 29974 ft | 488 kts | 182° |
| 2026-04-25 08:13 | -26.90308 | 31.35857 | 30286 ft | 489 kts | 182° |
| 2026-04-25 08:13 | -26.93703 | 31.36079 | 30641 ft | 488 kts | 182° |
| 2026-04-25 08:13 | -26.97088 | 31.36306 | 30999 ft | 487 kts | 182° |
| 2026-04-25 08:14 | -27.03836 | 31.36763 | 31666 ft | 485 kts | 182° |
| 2026-04-25 08:14 | -27.07197 | 31.36985 | 32041 ft | 483 kts | 182° |
| 2026-04-25 08:14 | -27.10554 | 31.37206 | 32226 ft | 485 kts | 182° |
| 2026-04-25 08:15 | -27.17313 | 31.37652 | 32226 ft | 485 kts | 182° |
| 2026-04-25 08:15 | -27.24029 | 31.38098 | 32219 ft | 482 kts | 182° |
| 2026-04-25 08:16 | -27.30702 | 31.38540 | 32211 ft | 479 kts | 183° |
| 2026-04-25 08:16 | -27.37287 | 31.38365 | 32223 ft | 471 kts | 191° |
| 2026-04-25 08:17 | -27.43820 | 31.37811 | 32225 ft | 472 kts | 190° |
| 2026-04-25 08:17 | -27.50397 | 31.37438 | 32216 ft | 474 kts | 188° |
| 2026-04-25 08:18 | -27.56995 | 31.37120 | 32197 ft | 475 kts | 188° |
| 2026-04-25 08:18 | -27.63620 | 31.36766 | 32208 ft | 477 kts | 189° |
| 2026-04-25 08:19 | -27.70268 | 31.36386 | 32208 ft | 479 kts | 189° |
| 2026-04-25 08:19 | -27.76948 | 31.35996 | 32210 ft | 482 kts | 189° |
| 2026-04-25 08:20 | -27.83641 | 31.35610 | 32183 ft | 482 kts | 189° |
| 2026-04-25 08:20 | -27.86984 | 31.35419 | 31912 ft | 479 kts | 188° |
| 2026-04-25 08:20 | -27.90300 | 31.35230 | 31659 ft | 475 kts | 188° |
| 2026-04-25 08:20 | -27.93578 | 31.35044 | 31391 ft | 469 kts | 188° |
| 2026-04-25 08:21 | -27.96836 | 31.34854 | 31170 ft | 469 kts | 188° |
| 2026-04-25 08:21 | -28.00098 | 31.34663 | 30905 ft | 470 kts | 188° |
| 2026-04-25 08:21 | -28.03365 | 31.34471 | 30674 ft | 470 kts | 188° |
| 2026-04-25 08:21 | -28.06632 | 31.34280 | 30426 ft | 471 kts | 188° |
| 2026-04-25 08:22 | -28.09905 | 31.34089 | 30179 ft | 471 kts | 187° |
| 2026-04-25 08:22 | -28.13179 | 31.33900 | 29926 ft | 471 kts | 187° |
| 2026-04-25 08:22 | -28.16449 | 31.33712 | 29676 ft | 469 kts | 187° |
| 2026-04-25 08:22 | -28.19701 | 31.33524 | 29431 ft | 467 kts | 187° |
| 2026-04-25 08:23 | -28.22929 | 31.33337 | 29175 ft | 463 kts | 187° |
| 2026-04-25 08:23 | -28.26124 | 31.33041 | 28922 ft | 457 kts | 192° |
| 2026-04-25 08:23 | -28.29200 | 31.32327 | 28651 ft | 446 kts | 204° |
| 2026-04-25 08:23 | -28.31943 | 31.30831 | 28411 ft | 432 kts | 219° |
| 2026-04-25 08:24 | -28.34319 | 31.28812 | 28176 ft | 424 kts | 224° |
| 2026-04-25 08:24 | -28.35842 | 31.27433 | 28011 ft | 423 kts | 223° |
| 2026-04-25 08:24 | -28.38212 | 31.25461 | 27758 ft | 423 kts | 219° |
| 2026-04-25 08:24 | -28.40676 | 31.23646 | 27423 ft | 419 kts | 217° |
| 2026-04-25 08:25 | -28.43137 | 31.21915 | 26985 ft | 412 kts | 217° |
| 2026-04-25 08:25 | -28.45552 | 31.20210 | 26520 ft | 405 kts | 217° |
| 2026-04-25 08:25 | -28.47911 | 31.18505 | 26054 ft | 399 kts | 218° |
| 2026-04-25 08:25 | -28.50224 | 31.16797 | 25588 ft | 393 kts | 218° |
| 2026-04-25 08:26 | -28.52492 | 31.15099 | 25131 ft | 388 kts | 218° |
| 2026-04-25 08:26 | -28.54729 | 31.13412 | 24668 ft | 384 kts | 218° |
| 2026-04-25 08:26 | -28.56937 | 31.11740 | 24208 ft | 379 kts | 219° |
| 2026-04-25 08:26 | -28.59121 | 31.10084 | 23757 ft | 374 kts | 218° |
| 2026-04-25 08:27 | -28.61272 | 31.08454 | 23312 ft | 370 kts | 218° |
| 2026-04-25 08:27 | -28.63406 | 31.06837 | 22873 ft | 367 kts | 218° |
| 2026-04-25 08:27 | -28.65521 | 31.05233 | 22424 ft | 364 kts | 218° |
| 2026-04-25 08:27 | -28.67633 | 31.03630 | 21995 ft | 368 kts | 218° |
| 2026-04-25 08:28 | -28.69798 | 31.01983 | 21534 ft | 379 kts | 218° |
| 2026-04-25 08:28 | -28.71967 | 31.00340 | 21357 ft | 369 kts | 218° |
| 2026-04-25 08:28 | -28.74071 | 30.98749 | 21148 ft | 356 kts | 218° |
| 2026-04-25 08:28 | -28.76099 | 30.97216 | 20996 ft | 344 kts | 218° |
| 2026-04-25 08:29 | -28.78171 | 30.95929 | 20817 ft | 339 kts | 201° |
| 2026-04-25 08:29 | -28.80490 | 30.95496 | 20548 ft | 341 kts | 183° |
| 2026-04-25 08:29 | -28.82843 | 30.95907 | 20209 ft | 342 kts | 171° |
| 2026-04-25 08:29 | -28.85136 | 30.96582 | 19876 ft | 339 kts | 169° |
| 2026-04-25 08:30 | -28.87403 | 30.97266 | 19532 ft | 335 kts | 170° |
| 2026-04-25 08:30 | -28.89656 | 30.97870 | 19194 ft | 331 kts | 172° |
| 2026-04-25 08:30 | -28.91902 | 30.98432 | 18860 ft | 330 kts | 172° |
| 2026-04-25 08:30 | -28.94140 | 30.98989 | 18540 ft | 329 kts | 172° |
| 2026-04-25 08:31 | -28.96396 | 30.99556 | 18260 ft | 336 kts | 172° |
| 2026-04-25 08:31 | -28.98692 | 31.00143 | 18115 ft | 337 kts | 171° |
| 2026-04-25 08:31 | -29.00954 | 31.00734 | 17932 ft | 329 kts | 171° |
| 2026-04-25 08:31 | -29.03149 | 31.01313 | 17783 ft | 319 kts | 171° |
| 2026-04-25 08:32 | -29.05277 | 31.01873 | 17637 ft | 309 kts | 171° |
| 2026-04-25 08:32 | -29.07338 | 31.02413 | 17493 ft | 299 kts | 171° |
| 2026-04-25 08:32 | -29.09334 | 31.02937 | 17358 ft | 290 kts | 171° |
| 2026-04-25 08:32 | -29.11290 | 31.03449 | 17112 ft | 288 kts | 172° |
| 2026-04-25 08:33 | -29.13247 | 31.03963 | 16849 ft | 289 kts | 171° |
| 2026-04-25 08:33 | -29.15182 | 31.04470 | 16707 ft | 284 kts | 171° |
| 2026-04-25 08:33 | -29.17101 | 31.04973 | 16466 ft | 280 kts | 171° |
| 2026-04-25 08:33 | -29.18972 | 31.05466 | 16178 ft | 273 kts | 172° |
| 2026-04-25 08:34 | -29.20804 | 31.05949 | 15876 ft | 266 kts | 171° |
| 2026-04-25 08:34 | -29.22590 | 31.06418 | 15607 ft | 260 kts | 172° |
| 2026-04-25 08:34 | -29.24338 | 31.06878 | 15333 ft | 255 kts | 172° |
| 2026-04-25 08:34 | -29.26062 | 31.07331 | 15074 ft | 253 kts | 172° |
| 2026-04-25 08:35 | -29.27811 | 31.07789 | 14589 ft | 260 kts | 172° |
| 2026-04-25 08:35 | -29.29569 | 31.08251 | 14281 ft | 259 kts | 172° |
| 2026-04-25 08:35 | -29.31310 | 31.08704 | 14005 ft | 253 kts | 172° |
| 2026-04-25 08:35 | -29.33013 | 31.09146 | 13733 ft | 249 kts | 171° |
| 2026-04-25 08:36 | -29.34690 | 31.09593 | 13449 ft | 246 kts | 172° |
| 2026-04-25 08:36 | -29.36344 | 31.10033 | 13227 ft | 243 kts | 171° |
| 2026-04-25 08:36 | -29.37983 | 31.10465 | 12966 ft | 240 kts | 171° |
| 2026-04-25 08:36 | -29.39608 | 31.10898 | 12714 ft | 239 kts | 171° |
| 2026-04-25 08:37 | -29.41219 | 31.11326 | 12471 ft | 237 kts | 171° |
| 2026-04-25 08:37 | -29.42838 | 31.11596 | 12199 ft | 234 kts | 192° |
| 2026-04-25 08:37 | -29.44347 | 31.10979 | 11785 ft | 233 kts | 218° |
| 2026-04-25 08:37 | -29.45620 | 31.09855 | 11466 ft | 231 kts | 223° |
| 2026-04-25 08:38 | -29.46857 | 31.08698 | 11179 ft | 227 kts | 221° |
| 2026-04-25 08:38 | -29.48102 | 31.07613 | 10939 ft | 223 kts | 220° |
| 2026-04-25 08:38 | -29.49351 | 31.06546 | 10688 ft | 224 kts | 220° |
| 2026-04-25 08:38 | -29.50599 | 31.05480 | 10432 ft | 223 kts | 220° |
| 2026-04-25 08:39 | -29.51838 | 31.04414 | 10179 ft | 223 kts | 221° |
| 2026-04-25 08:39 | -29.53072 | 31.03348 | 9972 ft | 221 kts | 221° |
| 2026-04-25 08:39 | -29.54306 | 31.02281 | 9711 ft | 222 kts | 221° |
| 2026-04-25 08:39 | -29.55541 | 31.01206 | 9457 ft | 223 kts | 221° |
| 2026-04-25 08:40 | -29.56781 | 31.00128 | 9208 ft | 224 kts | 221° |
| 2026-04-25 08:40 | -29.58019 | 30.99050 | 8980 ft | 223 kts | 221° |
| 2026-04-25 08:40 | -29.59256 | 30.97973 | 8757 ft | 224 kts | 221° |
| 2026-04-25 08:40 | -29.60510 | 30.96878 | 8488 ft | 230 kts | 221° |
| 2026-04-25 08:41 | -29.61789 | 30.95757 | 8232 ft | 231 kts | 220° |
| 2026-04-25 08:41 | -29.63061 | 30.94648 | 8005 ft | 228 kts | 220° |
| 2026-04-25 08:41 | -29.64322 | 30.93549 | 7735 ft | 226 kts | 221° |
| 2026-04-25 08:41 | -29.65567 | 30.92462 | 7524 ft | 224 kts | 220° |
| 2026-04-25 08:42 | -29.66815 | 30.91389 | 7291 ft | 224 kts | 220° |
| 2026-04-25 08:42 | -29.68054 | 30.90305 | 7052 ft | 224 kts | 221° |
| 2026-04-25 08:42 | -29.69287 | 30.89217 | 6811 ft | 223 kts | 220° |
| 2026-04-25 08:42 | -29.70525 | 30.88129 | 6587 ft | 223 kts | 220° |
| 2026-04-25 08:43 | -29.71750 | 30.87055 | 6349 ft | 221 kts | 220° |
| 2026-04-25 08:43 | -29.72974 | 30.85984 | 6022 ft | 222 kts | 220° |
| 2026-04-25 08:43 | -29.74211 | 30.84948 | 5642 ft | 222 kts | 208° |
| 2026-04-25 08:43 | -29.75734 | 30.84645 | 5259 ft | 224 kts | 171° |
| 2026-04-25 08:44 | -29.77132 | 30.85344 | 4865 ft | 223 kts | 135° |
| 2026-04-25 08:44 | -29.77980 | 30.86765 | 4604 ft | 214 kts | 109° |
| 2026-04-25 08:44 | -29.78500 | 30.88365 | 4266 ft | 213 kts | 107° |
| 2026-04-25 08:44 | -29.79008 | 30.89967 | 4098 ft | 210 kts | 108° |
| 2026-04-25 08:45 | -29.79510 | 30.91546 | 3962 ft | 208 kts | 107° |
| 2026-04-25 08:45 | -29.80001 | 30.93094 | 3938 ft | 206 kts | 102° |
| 2026-04-25 08:45 | -29.80068 | 30.94722 | 3822 ft | 207 kts | 68° |
| 2026-04-25 08:45 | -29.79235 | 30.96023 | 3656 ft | 203 kts | 38° |
| 2026-04-25 08:46 | -29.78151 | 30.97002 | 3603 ft | 196 kts | 36° |
| 2026-04-25 08:46 | -29.77082 | 30.97970 | 3467 ft | 193 kts | 37° |
| 2026-04-25 08:46 | -29.76099 | 30.98888 | 3422 ft | 172 kts | 35° |
| 2026-04-25 08:46 | -29.75192 | 30.99680 | 3371 ft | 158 kts | 35° |
| 2026-04-25 08:47 | -29.74351 | 31.00418 | 3193 ft | 147 kts | 34° |
| 2026-04-25 08:47 | -29.73562 | 31.01143 | 3005 ft | 142 kts | 36° |
| 2026-04-25 08:47 | -29.72758 | 31.01828 | 2806 ft | 144 kts | 36° |
| 2026-04-25 08:47 | -29.71958 | 31.02505 | 2600 ft | 140 kts | 38° |
| 2026-04-25 08:48 | -29.71152 | 31.03213 | 2419 ft | 151 kts | 40° |
| 2026-04-25 08:48 | -29.70302 | 31.03951 | 2212 ft | 155 kts | 40° |
| 2026-04-25 08:48 | -29.69442 | 31.04704 | 2005 ft | 154 kts | 40° |
| 2026-04-25 08:48 | -29.68562 | 31.05478 | 1796 ft | 162 kts | 34° |
| 2026-04-25 08:49 | -29.67703 | 31.06236 | 1576 ft | 149 kts | 36° |
| 2026-04-25 08:49 | -29.66870 | 31.06933 | 1394 ft | 151 kts | 34° |
| 2026-04-25 08:49 | -29.66059 | 31.07671 | 1176 ft | 146 kts | 36° |
| 2026-04-25 08:49 | -29.65238 | 31.08386 | 1023 ft | 150 kts | 34° |
| 2026-04-25 08:50 | -29.64402 | 31.09113 | 789 ft | 148 kts | 35° |
| 2026-04-25 08:50 | -29.63587 | 31.09828 | 597 ft | 149 kts | 36° |
| 2026-04-25 08:50 | -29.62766 | 31.10552 | 422 ft | 147 kts | 36° |
| 2026-04-25 08:50 | -29.61942 | 31.11258 | 303 ft | 147 kts | 36° |
| 2026-04-25 08:51 | -29.61208 | 31.11875 | 304 ft | 118 kts | 36° |
| 2026-04-25 08:51 | -29.60657 | 31.12353 | 304 ft | 80 kts | 37° |
| 2026-04-25 08:51 | -29.60394 | 31.12580 | 307 ft | 34 kts | 36° |
| 2026-04-25 08:51 | -29.60213 | 31.12735 | 307 ft | 31 kts | 38° |
| 2026-04-25 08:52 | -29.60050 | 31.12878 | 307 ft | 29 kts | 37° |
| 2026-04-25 08:52 | -29.59900 | 31.13018 | 308 ft | 27 kts | 37° |
| 2026-04-25 08:52 | -29.59782 | 31.12972 | 309 ft | 19 kts | 299° |
| 2026-04-25 08:52 | -29.59835 | 31.12853 | 309 ft | 19 kts | 216° |
| 2026-04-25 08:53 | -29.59939 | 31.12766 | 308 ft | 18 kts | 217° |
| 2026-04-25 08:53 | -29.60039 | 31.12681 | 307 ft | 18 kts | 217° |
| 2026-04-25 08:53 | -29.60135 | 31.12598 | 311 ft | 17 kts | 217° |
| 2026-04-25 08:53 | -29.60228 | 31.12518 | 307 ft | 16 kts | 217° |
| 2026-04-25 08:54 | -29.60316 | 31.12440 | 307 ft | 16 kts | 218° |
| 2026-04-25 08:54 | -29.60401 | 31.12364 | 308 ft | 15 kts | 218° |
| 2026-04-25 08:54 | -29.60482 | 31.12292 | 306 ft | 14 kts | 218° |
| 2026-04-25 08:54 | -29.60559 | 31.12222 | 305 ft | 14 kts | 218° |
| 2026-04-25 08:55 | -29.60633 | 31.12155 | 305 ft | 13 kts | 218° |
| 2026-04-25 08:55 | -29.60704 | 31.12092 | 305 ft | 13 kts | 218° |
| 2026-04-25 08:55 | -29.60774 | 31.12029 | 304 ft | 12 kts | 218° |
| 2026-04-25 08:55 | -29.60841 | 31.11968 | 304 ft | 12 kts | 218° |
| 2026-04-25 08:56 | -29.60906 | 31.11908 | 305 ft | 12 kts | 218° |
| 2026-04-25 08:56 | -29.60970 | 31.11850 | 303 ft | 12 kts | 218° |
| 2026-04-25 08:56 | -29.61032 | 31.11793 | 303 ft | 11 kts | 219° |
| 2026-04-25 08:56 | -29.61092 | 31.11738 | 302 ft | 11 kts | 219° |
| 2026-04-25 08:57 | -29.61150 | 31.11684 | 302 ft | 11 kts | 219° |
| 2026-04-25 08:57 | -29.61207 | 31.11633 | 301 ft | 10 kts | 217° |
| 2026-04-25 08:57 | -29.61264 | 31.11584 | 302 ft | 10 kts | 217° |
| 2026-04-25 08:57 | -29.61304 | 31.11524 | 301 ft | 10 kts | 262° |
| 2026-04-25 08:58 | -29.61278 | 31.11455 | 302 ft | 9 kts | 306° |
| 2026-04-25 08:58 | -29.61239 | 31.11396 | 301 ft | 9 kts | 306° |
| 2026-04-25 08:58 | -29.61203 | 31.11336 | 302 ft | 9 kts | 304° |
| 2026-04-25 08:58 | -29.61169 | 31.11277 | 301 ft | 9 kts | 304° |
| 2026-04-25 08:59 | -29.61124 | 31.11234 | 301 ft | 8 kts | 343° |
| 2026-04-25 08:59 | -29.61071 | 31.11255 | 302 ft | 8 kts | 34° |
| 2026-04-25 08:59 | -29.61024 | 31.11291 | 301 ft | 8 kts | 34° |
| 2026-04-25 08:59 | -29.60976 | 31.11322 | 302 ft | 8 kts | 30° |
| 2026-04-25 09:00 | -29.60937 | 31.11356 | 302 ft | 0 kts | 38° |